Latest  Newer  Older  Last 2 hours slideshow  Last 24 hours slideshow  Refresh every 5 minutes 
Current image  Latest image  Rain/snow radar  Cloud coverage sat images 

All time is UTC (add 2 hours to UTC in wintertime, 3 hours to UTC in DST for Latvia local time)

2021/07/31 04:50 EVRA 310450Z 23007KT 200V260 9999 SCT015 SCT020CB BKN042 18/16 Q1000 NOSIG
2021/07/31 04:50 EVLA 310450Z AUTO 27011KT 9999 SCT015/// BKN020/// 19/15 Q1002
2021/07/31 04:50 EVVA 310450Z AUTO 26011KT 9999 BKN014 19/18 Q1000
2021/07/31 04:50 EYKA 310450Z 23006KT 200V260 CAVOK 19/11 Q1005
2021/07/31 04:50 EYPA 310450Z 26007KT 200V320 9999 FEW015 20/15 Q1003
2021/07/31 04:50 EYSA 310450Z 21009KT CAVOK 18/14 Q1003 BLU NOSIG
2021/07/31 04:50 EYVI 310450Z 19006KT CAVOK 15/11 Q1007 NOSIG
2021/07/31 04:50 EEKA 310450Z 22005KT 180V280 9999 FEW023 16/15 Q0997
2021/07/31 04:50 EEKE 310450Z AUTO 25004KT 200V320 9999NDV FEW024 18/16 Q0998

2021/07/31 04:50 EETN 310450Z 26010KT 9999 FEW018 16/13 Q0996 NOSIG
2021/07/31 04:50 EETU 310450Z AUTO 23009KT 9999 NCD 16/15 Q0998
   RIGA AIRPORT     EVRA               56 55N  023 58E   10   X     T          6 LV
   LIEPAJA INTL     EVLA        26406  56 31N  021 06E    4   X                8 LV
   VENTPILS         EVVA               57 21N  021 33E    6   X                8 LV
   KAUNAS           EYKA               54 54N  023 55E   77   X     T          6 LT
   PALANGA INTL     EYPA               55 55N  021 03E   10   X                6 LT
   SIAULIAI INTL    EYSA               55 54N  023 24E  135   X     T          6 LT
   VILNIUS INTL     EYVI        26730  54 38N  025 17E  197   X     T          6 LT
   KARDLA           EEKA        26116  58 59N  022 50E    4   X                8 EE
   KURESSAARE       EEKE               58 14N  022 31E    4   X                8 EE
   PARNU            EEPU               58 25N  024 28E   14   X                8 EE
   TALLINN          EETN        26038  59 24N  024 49E   40   X     T          8 EE
   TARTU            EETU               58 19N  026 41E   67   X                8 EE